Home > Products > Valid Products > MTR

000
SAUS43 KABR 120857
MTR8D3
METAR K8D3 120856Z AUTO 35014KT M12/M14 A3033 RMK AO1 SLP308
T11171139 53019





000
SAUS43 KABR 120757
MTR8D3
METAR K8D3 120756Z AUTO 34009KT M12/M14 A3030 RMK AO1 SLP299
T11221144





000
SAUS43 KABR 120657
MTR8D3
METAR K8D3 120656Z AUTO 34009KT M14/M16 A3029 RMK AO1 SLP300
T11391156





000
SAUS43 KABR 120657
MTR8D3
METAR K8D3 120656Z AUTO 34009KT M14/M16 A3029 RMK AO1 SLP300
T11391156





000
SAUS43 KABR 120557
MTR8D3
METAR K8D3 120556Z AUTO 34008KT M12/M13 A3027 RMK AO1 SLP291
T11171133 11083 21117 410831194 51006





000
SAUS43 KABR 120557
MTR8D3
METAR K8D3 120556Z AUTO 34008KT M12/M13 A3027 RMK AO1 SLP291
T11171133 11083 21117 410831194 51006





000
SAUS43 KABR 120500 COR
MTR8D3
METAR K8D3 120456Z AUTO 34009KT M12/M13 A3027 RMK AO1 SLP291
T11171133





000
SAUS43 KABR 120500 COR
MTR8D3
METAR K8D3 120456Z AUTO 34009KT M12/M13 A3027 RMK AO1 SLP291
T11171133





000
SAUS43 KABR 120458 COR
MTR8D3
METAR K8D3 120456Z AUTO 34009KT M12/M13 A3027 RMK AO1 SLP291
T11171133





000
SAUS43 KABR 120458 COR
MTR8D3
METAR K8D3 120456Z AUTO 34009KT M12/M13 A3027 RMK AO1 SLP291
T11171133





000
SAUS43 KABR 120357
MTR8D3
METAR K8D3 120356Z AUTO 35011KT M10/M12 A3026 RMK AO1 SLP287
T11001122





000
SAUS43 KABR 120357
MTR8D3
METAR K8D3 120356Z AUTO 35011KT M10/M12 A3026 RMK AO1 SLP287
T11001122





000
SAUS43 KABR 120257
MTR8D3
METAR K8D3 120256Z AUTO 35007KT M10/M12 A3025 RMK AO1 SLP285
T11001117 51015





000
SAUS43 KABR 120257
MTR8D3
METAR K8D3 120256Z AUTO 35007KT M10/M12 A3025 RMK AO1 SLP285
T11001117 51015





000
SAUS43 KABR 120157
MTR8D3
METAR K8D3 120156Z AUTO 01009KT M09/M12 A3025 RMK AO1 SLP282
T10941117





000
SAUS43 KABR 120157
MTR8D3
METAR K8D3 120156Z AUTO 01009KT M09/M12 A3025 RMK AO1 SLP282
T10941117





000
SAUS43 KABR 120057
MTR8D3
METAR K8D3 120056Z AUTO 02007KT M09/M12 A3023 RMK AO1 SLP275
T10941117





000
SAUS43 KABR 120057
MTR8D3
METAR K8D3 120056Z AUTO 02007KT M09/M12 A3023 RMK AO1 SLP275
T10941117





000
SAUS43 KABR 112357
MTR8D3
METAR K8D3 112356Z AUTO 03003KT M08/M11 A3021 RMK AO1 SLP268
T10831111 11083 21111 53017





000
SAUS43 KABR 112357
MTR8D3
METAR K8D3 112356Z AUTO 03003KT M08/M11 A3021 RMK AO1 SLP268
T10831111 11083 21111 53017





000
SAUS43 KABR 112257
MTR8D3
METAR K8D3 112256Z AUTO 00000KT M08/M11 A3018 RMK AO1 SLP261
T10831111





000
SAUS43 KABR 112257
MTR8D3
METAR K8D3 112256Z AUTO 00000KT M08/M11 A3018 RMK AO1 SLP261
T10831111





000
SAUS43 KABR 112157
MTR8D3
METAR K8D3 112156Z AUTO 16005KT M09/M11 A3017 RMK AO1 SLP259
T10891111





000
SAUS43 KABR 112057
MTR8D3
METAR K8D3 112056Z AUTO 19006KT M08/M11 A3016 RMK AO1 SLP255
T10831111 58017





000
SAUS43 KABR 112057
MTR8D3
METAR K8D3 112056Z AUTO 19006KT M08/M11 A3016 RMK AO1 SLP255
T10831111 58017





000
SAUS43 KABR 111959 COR
MTR8D3
METAR K8D3 111956Z AUTO 18006KT M09/M12 A3018 RMK AO1 SLP263
T10941122





000
SAUS43 KABR 111958 COR
MTR8D3
METAR K8D3 111956Z AUTO 18006KT M09/M12 A3018 RMK AO1 SLP263
T10941122





000
SAUS43 KABR 111857
MTR8D3
METAR K8D3 111856Z AUTO 17005KT M11/M13 A3020 RMK AO1 SLP268
T11061133





000
SAUS43 KABR 111757
MTR8D3
METAR K8D3 111756Z AUTO 17007KT M11/M14 A3021 RMK AO1 SLP270
T11111139 11111 21139 56007





000
SAUS43 KABR 111757
MTR8D3
METAR K8D3 111756Z AUTO 17007KT M11/M14 A3021 RMK AO1 SLP270
T11111139 11111 21139 56007





000
SAUS43 KABR 111657
MTR8D3
METAR K8D3 111656Z AUTO 16008KT M12/M14 A3021 RMK AO1 SLP271
T11171144





000
SAUS43 KABR 111657
MTR8D3
METAR K8D3 111656Z AUTO 16008KT M12/M14 A3021 RMK AO1 SLP271
T11171144





000
SAUS43 KABR 111557
MTR8D3
METAR K8D3 111556Z AUTO 15007KT M12/M15 A3022 RMK AO1 SLP274
T11221150





000
SAUS43 KABR 111457
MTR8D3
METAR K8D3 111456Z AUTO 17005KT M13/M16 A3023 RMK AO1 SLP279
T11281161 55007





000
SAUS43 KABR 111457
MTR8D3
METAR K8D3 111456Z AUTO 17005KT M13/M16 A3023 RMK AO1 SLP279
T11281161 55007





000
SAUS43 KABR 111358
MTR8D3
METAR K8D3 111356Z AUTO 16005KT M13/M16 A3023 RMK AO1 SLP279
T11331161





000
SAUS43 KABR 111358
MTR8D3
METAR K8D3 111356Z AUTO 16005KT M13/M16 A3023 RMK AO1 SLP279
T11331161





000
SAUS43 KABR 111257
MTR8D3
METAR K8D3 111256Z AUTO 16003KT M13/M16 A3025 RMK AO1 SLP286
T11331161





000
SAUS43 KABR 111257
MTR8D3
METAR K8D3 111256Z AUTO 16003KT M13/M16 A3025 RMK AO1 SLP286
T11331161





000
SAUS43 KABR 111158
MTR8D3
METAR K8D3 111156Z AUTO 00000KT M13/M16 A3025 RMK AO1 SLP287 70006
T11331161 11128 21194 58004





000
SAUS43 KABR 111158
MTR8D3
METAR K8D3 111156Z AUTO 00000KT M13/M16 A3025 RMK AO1 SLP287 70006
T11331161 11128 21194 58004





000
SAUS43 KABR 111057
MTR8D3
METAR K8D3 111056Z AUTO 26003KT M15/M17 A3026 RMK AO1 SLP291
T11501167





000
SAUS43 KABR 111057
MTR8D3
METAR K8D3 111056Z AUTO 26003KT M15/M17 A3026 RMK AO1 SLP291
T11501167





000
SAUS43 KABR 110957
MTR8D3
METAR K8D3 110956Z AUTO 00000KT M18/M19 A3026 RMK AO1 SLP295
T11781194





000
SAUS43 KABR 110857
MTR8D3
METAR K8D3 110856Z AUTO 32003KT M17/M19 A3027 RMK AO1 SLP295
T11721189 55002





000
SAUS43 KABR 110857
MTR8D3
METAR K8D3 110856Z AUTO 32003KT M17/M19 A3027 RMK AO1 SLP295
T11721189 55002





000
SAUS43 KABR 110800 COR
MTR8D3
METAR K8D3 110756Z AUTO 35004KT M18/M19 A3026 RMK AO1 SLP293
T11831194





000
SAUS43 KABR 110758 COR
MTR8D3
METAR K8D3 110756Z AUTO 35004KT M18/M19 A3026 RMK AO1 SLP293
T11831194





000
SAUS43 KABR 110658
MTR8D3
METAR K8D3 110656Z AUTO 32004KT M15/M17 A3026 RMK AO1 SLP292
T11501167





000
SAUS43 KABR 110658
MTR8D3
METAR K8D3 110656Z AUTO 32004KT M15/M17 A3026 RMK AO1 SLP292
T11501167





000
SAUS43 KABR 110558
MTR8D3
METAR K8D3 110556Z AUTO 36005KT M13/M16 A3027 RMK AO1 SLP294
T11281156 11117 21128 411111133 53006





000
SAUS43 KABR 110558
MTR8D3
METAR K8D3 110556Z AUTO 36005KT M13/M16 A3027 RMK AO1 SLP294
T11281156 11117 21128 411111133 53006





000
SAUS43 KABR 110457
MTR8D3
METAR K8D3 110456Z AUTO 03006KT M12/M15 A3026 RMK AO1 SLP290
T11171150





000
SAUS43 KABR 110457
MTR8D3
METAR K8D3 110456Z AUTO 03006KT M12/M15 A3026 RMK AO1 SLP290
T11171150





000
SAUS43 KABR 110357
MTR8D3
METAR K8D3 110356Z AUTO 33004KT M12/M14 A3025 RMK AO1 SLP286
T11171139





000
SAUS43 KABR 110257
MTR8D3
METAR K8D3 110256Z AUTO 01004KT M12/M14 A3025 RMK AO1 SLP287
T11171144 53021





000
SAUS43 KABR 110257
MTR8D3
METAR K8D3 110256Z AUTO 01004KT M12/M14 A3025 RMK AO1 SLP287
T11171144 53021





000
SAUS43 KABR 110157
MTR8D3
METAR K8D3 110156Z AUTO 03003KT M12/M14 A3022 RMK AO1 SLP276
T11171144





000
SAUS43 KABR 110157
MTR8D3
METAR K8D3 110156Z AUTO 03003KT M12/M14 A3022 RMK AO1 SLP276
T11171144





000
SAUS43 KABR 110057
MTR8D3
METAR K8D3 110056Z AUTO 03004KT M12/M14 A3022 RMK AO1 SLP274
T11171144





000
SAUS43 KABR 110057
MTR8D3
METAR K8D3 110056Z AUTO 03004KT M12/M14 A3022 RMK AO1 SLP274
T11171144





000
SAUS43 KABR 102357
MTR8D3
METAR K8D3 102356Z AUTO 07004KT M12/M14 A3019 RMK AO1 SLP265
T11171144 11117 21128 53033





000
SAUS43 KABR 102357
MTR8D3
METAR K8D3 102356Z AUTO 07004KT M12/M14 A3019 RMK AO1 SLP265
T11171144 11117 21128 53033





000
SAUS43 KABR 102257
MTR8D3
METAR K8D3 102256Z AUTO 09006KT M12/M15 A3015 RMK AO1 SLP251
T11221150





000
SAUS43 KABR 102257
MTR8D3
METAR K8D3 102256Z AUTO 09006KT M12/M15 A3015 RMK AO1 SLP251
T11221150





000
SAUS43 KABR 102157
MTR8D3
METAR K8D3 102156Z AUTO 13006KT M12/M15 A3012 RMK AO1 SLP241
T11221150





000
SAUS43 KABR 102057
MTR8D3
METAR K8D3 102056Z AUTO 12008KT M12/M15 A3009 RMK AO1 SLP230
T11221150 53008





000
SAUS43 KABR 101957
MTR8D3
METAR K8D3 101956Z AUTO 14010KT M12/M15 A3006 RMK AO1 SLP219
T11221150





000
SAUS43 KABR 101857
MTR8D3
METAR K8D3 101856Z AUTO 15009KT M13/M15 A3006 RMK AO1 SLP219
T11281150





000
SAUS43 KABR 101857
MTR8D3
METAR K8D3 101856Z AUTO 15009KT M13/M15 A3006 RMK AO1 SLP219
T11281150





000
SAUS43 KABR 101758
MTR8D3
METAR K8D3 101756Z AUTO 14009KT M13/M15 A3006 RMK AO1 SLP220 60006
T11281150 11128 21133 53007





000
SAUS43 KABR 101758
MTR8D3
METAR K8D3 101756Z AUTO 14009KT M13/M15 A3006 RMK AO1 SLP220 60006
T11281150 11128 21133 53007





000
SAUS43 KABR 101659 COR
MTR8D3
METAR K8D3 101656Z AUTO 16011KT M13/M15 A3005 RMK AO1 SLP216
T11281150





000
SAUS43 KABR 101659 COR
MTR8D3
METAR K8D3 101656Z AUTO 16011KT M13/M15 A3005 RMK AO1 SLP216
T11281150





000
SAUS43 KABR 101658 COR
MTR8D3
METAR K8D3 101656Z AUTO 16011KT M13/M15 A3005 RMK AO1 SLP216
T11281150





000
SAUS43 KABR 101658 COR
MTR8D3
METAR K8D3 101656Z AUTO 16011KT M13/M15 A3005 RMK AO1 SLP216
T11281150





000
SAUS43 KABR 101657
MTR8D3
METAR K8D3 101656Z AUTO 16011KT M13/M15 A3005 RMK AO1 SLP216
T11281150





000
SAUS43 KABR 101657
MTR8D3
METAR K8D3 101656Z AUTO 16011KT M13/M15 A3005 RMK AO1 SLP216
T11281150





000
SAUS43 KABR 101557
MTR8D3
METAR K8D3 101556Z AUTO 16014KT M13/M16 A3004 RMK AO1 SLP214 P0001
T11331156





000
SAUS43 KABR 101457
MTR8D3
METAR K8D3 101456Z AUTO 15011KT M13/M16 A3004 RMK AO1 SLP213 P0001
60005 T11331156 55003





000
SAUS43 KABR 101357
MTR8D3
METAR K8D3 101356Z AUTO 14010KT M13/M15 A3004 RMK AO1 SLP212 P0001
T11331150





000
SAUS43 KABR 101257
MTR8D3
METAR K8D3 101256Z AUTO 13010KT M13/M14 A3004 RMK AO1 SLP212 P0003
T11281144





000
SAUS43 KABR 101257
MTR8D3
METAR K8D3 101256Z AUTO 13010KT M13/M14 A3004 RMK AO1 SLP212 P0003
T11281144





000
SAUS43 KABR 101157
MTR8D3
METAR K8D3 101156Z AUTO 12007KT M13/M14 A3005 RMK AO1 SLP215 P0003
60006 70006 T11281144 11111 21128 56012





000
SAUS43 KABR 101157
MTR8D3
METAR K8D3 101156Z AUTO 12007KT M13/M14 A3005 RMK AO1 SLP215 P0003
60006 70006 T11281144 11111 21128 56012





000
SAUS43 KABR 101057
MTR8D3
METAR K8D3 101056Z AUTO 12005KT M13/M15 A3005 RMK AO1 SLP215 P0002
T11281150





000
SAUS43 KABR 101057
MTR8D3
METAR K8D3 101056Z AUTO 12005KT M13/M15 A3005 RMK AO1 SLP215 P0002
T11281150





000
SAUS43 KABR 100957
MTR8D3
METAR K8D3 100956Z AUTO 10005KT M13/M15 A3008 RMK AO1 SLP224 P0001
T11281150





000
SAUS43 KABR 100857
MTR8D3
METAR K8D3 100856Z AUTO 09006KT M12/M15 A3009 RMK AO1 SLP226
T11221150 56025





000
SAUS43 KABR 100857
MTR8D3
METAR K8D3 100856Z AUTO 09006KT M12/M15 A3009 RMK AO1 SLP226
T11221150 56025





000
SAUS43 KABR 100758 COR
MTR8D3
METAR K8D3 100756Z AUTO 11006KT M12/M15 A3012 RMK AO1 SLP234
T11171150





000
SAUS43 KABR 100657
MTR8D3
METAR K8D3 100656Z AUTO 11005KT M11/M14 A3012 RMK AO1 SLP237
T11111144





000
SAUS43 KABR 100657
MTR8D3
METAR K8D3 100656Z AUTO 11005KT M11/M14 A3012 RMK AO1 SLP237
T11111144





000
SAUS43 KABR 100558 COR
MTR8D3
METAR K8D3 100556Z AUTO 06006KT M11/M14 A3017 RMK AO1 SLP252
T11111144 11083 21117 410611156 55007





000
SAUS43 KABR 100558 COR
MTR8D3
METAR K8D3 100556Z AUTO 06006KT M11/M14 A3017 RMK AO1 SLP252
T11111144 11083 21117 410611156 55007





000
SAUS43 KABR 100458 COR
MTR8D3
METAR K8D3 100456Z AUTO 04004KT M11/M14 A3016 RMK AO1 SLP252
T11111144





000
SAUS43 KABR 100458 COR
MTR8D3
METAR K8D3 100456Z AUTO 04004KT M11/M14 A3016 RMK AO1 SLP252
T11111144





000
SAUS43 KABR 100357
MTR8D3
METAR K8D3 100356Z AUTO 04006KT M11/M14 A3018 RMK AO1 SLP258
T11061144





000
SAUS43 KABR 100257
MTR8D3
METAR K8D3 100256Z AUTO 04007KT M10/M14 A3019 RMK AO1 SLP261
T11001144 56012





000
SAUS43 KABR 100158 COR
MTR8D3
METAR K8D3 100156Z AUTO 04006KT M09/M13 A3019 RMK AO1 SLP262
T10941128





000
SAUS43 KABR 100057
MTR8D3
METAR K8D3 100056Z AUTO 03008KT M09/M13 A3021 RMK AO1 SLP271
T10891128





000
SAUS43 KABR 100057
MTR8D3
METAR K8D3 100056Z AUTO 03008KT M09/M13 A3021 RMK AO1 SLP271
T10891128





000
SAUS43 KABR 092358
MTR8D3
METAR K8D3 092356Z AUTO 03008KT M08/M13 A3022 RMK AO1 SLP275
T10831128 11061 21083 53001





000
SAUS43 KABR 092358
MTR8D3
METAR K8D3 092356Z AUTO 03008KT M08/M13 A3022 RMK AO1 SLP275
T10831128 11061 21083 53001





000
SAUS43 KABR 092257
MTR8D3
METAR K8D3 092256Z AUTO 36011KT M07/M13 A3022 RMK AO1 SLP273
T10721128





000
SAUS43 KABR 092257
MTR8D3
METAR K8D3 092256Z AUTO 36011KT M07/M13 A3022 RMK AO1 SLP273
T10721128





000
SAUS43 KABR 092158
MTR8D3
METAR K8D3 092156Z AUTO 01010KT M07/M12 A3022 RMK AO1 SLP272
T10671122





000
SAUS43 KABR 092158
MTR8D3
METAR K8D3 092156Z AUTO 01010KT M07/M12 A3022 RMK AO1 SLP272
T10671122





000
SAUS43 KABR 092057
MTR8D3
METAR K8D3 092056Z AUTO 36009KT M07/M12 A3022 RMK AO1 SLP272
T10671122 56012





000
SAUS43 KABR 091957
MTR8D3
METAR K8D3 091956Z AUTO 01012KT M07/M13 A3023 RMK AO1 SLP276
T10721133





000
SAUS43 KABR 091957
MTR8D3
METAR K8D3 091956Z AUTO 01012KT M07/M13 A3023 RMK AO1 SLP276
T10721133





000
SAUS43 KABR 091858 COR
MTR8D3
METAR K8D3 091856Z AUTO 01012KT M08/M13 A3024 RMK AO1 SLP279
T10781133





000
SAUS43 KABR 091858 COR
MTR8D3
METAR K8D3 091856Z AUTO 01012KT M08/M13 A3024 RMK AO1 SLP279
T10781133





000
SAUS43 KABR 091758
MTR8D3
METAR K8D3 091756Z AUTO 36012KT M08/M13 A3026 RMK AO1 SLP285
T10781133 11078 21156 50000





000
SAUS43 KABR 091657
MTR8D3
METAR K8D3 091656Z AUTO 36014KT M09/M14 A3026 RMK AO1 SLP288
T10891139





000
SAUS43 KABR 091657
MTR8D3
METAR K8D3 091656Z AUTO 36014KT M09/M14 A3026 RMK AO1 SLP288
T10891139





000
SAUS43 KABR 091558
MTR8D3
METAR K8D3 091556Z AUTO 36011KT M10/M14 A3025 RMK AO1 SLP284
T11001139





000
SAUS43 KABR 091457
MTR8D3
METAR K8D3 091456Z AUTO 35012KT M11/M14 A3026 RMK AO1 SLP286
T11111139 51009





000
SAUS43 KABR 091357
MTR8D3
METAR K8D3 091356Z AUTO 35011KT M12/M15 A3025 RMK AO1 SLP284
T11221150





000
SAUS43 KABR 091258
MTR8D3
METAR K8D3 091256Z AUTO 34012KT M13/M16 A3025 RMK AO1 SLP284
T11331161





000
SAUS43 KABR 091258
MTR8D3
METAR K8D3 091256Z AUTO 34012KT M13/M16 A3025 RMK AO1 SLP284
T11331161





000
SAUS43 KABR 091157
MTR8D3
METAR K8D3 091156Z AUTO 34011KT M15/M18 A3023 RMK AO1 SLP279
T11501178 11139 21156 51001





000
SAUS43 KABR 091157
MTR8D3
METAR K8D3 091156Z AUTO 34011KT M15/M18 A3023 RMK AO1 SLP279
T11501178 11139 21156 51001





000
SAUS43 KABR 091057
MTR8D3
METAR K8D3 091056Z AUTO 34012KT M16/M18 A3023 RMK AO1 SLP277
T11561178





000
SAUS43 KABR 091057
MTR8D3
METAR K8D3 091056Z AUTO 34012KT M16/M18 A3023 RMK AO1 SLP277
T11561178





000
SAUS43 KABR 090957
MTR8D3
METAR K8D3 090956Z AUTO 35012KT M15/M17 A3023 RMK AO1 SLP278
T11501172





    US Dept of Commerce
    National Oceanic and Atmospheric Administration
    National Weather Service
    1325 East West Highway
    Silver Spring, MD 20910
    Page Author: NWS Internet Services Team
Disclaimer
Information Quality
Credits
Glossary
Privacy Policy
Freedom of Information Act (FOIA)
About Us
Career Opportunities